sensor_id;sensor_type;location;lat;lon;timestamp;pressure;altitude;pressure_sealevel;temperature;humidity
49529;BME280;35423;37.320;-121.762;2023-09-19T00:00:10;99740.95;;;46.08;8.13
49529;BME280;35423;37.320;-121.762;2023-09-19T00:02:33;99742.39;;;45.45;8.26
49529;BME280;35423;37.320;-121.762;2023-09-19T00:05:02;99742.74;;;45.50;8.38
49529;BME280;35423;37.320;-121.762;2023-09-19T00:07:30;99743.80;;;45.28;8.44
49529;BME280;35423;37.320;-121.762;2023-09-19T00:09:54;99745.62;;;45.29;8.51
49529;BME280;35423;37.320;-121.762;2023-09-19T00:12:20;99747.35;;;45.14;8.59
49529;BME280;35423;37.320;-121.762;2023-09-19T00:14:55;99745.59;;;44.72;8.62
49529;BME280;35423;37.320;-121.762;2023-09-19T00:17:17;99745.03;;;44.54;8.77
49529;BME280;35423;37.320;-121.762;2023-09-19T00:19:42;99742.85;;;44.25;8.85
49529;BME280;35423;37.320;-121.762;2023-09-19T00:22:13;99742.88;;;44.34;9.00
49529;BME280;35423;37.320;-121.762;2023-09-19T00:24:39;99742.79;;;44.07;9.07
49529;BME280;35423;37.320;-121.762;2023-09-19T00:27:10;99743.28;;;43.76;9.11
49529;BME280;35423;37.320;-121.762;2023-09-19T00:29:37;99742.37;;;43.01;9.22
49529;BME280;35423;37.320;-121.762;2023-09-19T00:32:06;99743.09;;;43.02;9.36
49529;BME280;35423;37.320;-121.762;2023-09-19T00:34:31;99742.83;;;43.04;9.44
49529;BME280;35423;37.320;-121.762;2023-09-19T00:36:55;99746.34;;;42.74;9.51
49529;BME280;35423;37.320;-121.762;2023-09-19T00:39:21;99745.54;;;42.38;9.60
49529;BME280;35423;37.320;-121.762;2023-09-19T00:41:48;99746.02;;;42.09;9.67
49529;BME280;35423;37.320;-121.762;2023-09-19T00:44:12;99749.53;;;42.29;9.82
49529;BME280;35423;37.320;-121.762;2023-09-19T00:46:44;99748.04;;;41.68;9.92
49529;BME280;35423;37.320;-121.762;2023-09-19T00:49:13;99752.29;;;41.29;10.09
49529;BME280;35423;37.320;-121.762;2023-09-19T00:51:43;99756.43;;;40.96;10.18
49529;BME280;35423;37.320;-121.762;2023-09-19T00:54:13;99752.60;;;41.14;10.33
49529;BME280;35423;37.320;-121.762;2023-09-19T00:56:38;99755.10;;;40.65;10.38
49529;BME280;35423;37.320;-121.762;2023-09-19T00:59:03;99758.50;;;40.52;10.57
49529;BME280;35423;37.320;-121.762;2023-09-19T01:01:32;99762.97;;;40.78;10.68
49529;BME280;35423;37.320;-121.762;2023-09-19T01:04:00;99766.47;;;39.92;10.84
49529;BME280;35423;37.320;-121.762;2023-09-19T01:06:34;99768.61;;;40.46;10.91
49529;BME280;35423;37.320;-121.762;2023-09-19T01:09:01;99773.84;;;39.58;11.09
49529;BME280;35423;37.320;-121.762;2023-09-19T01:11:33;99777.92;;;40.16;11.16
49529;BME280;35423;37.320;-121.762;2023-09-19T01:14:02;99778.67;;;39.33;11.25
49529;BME280;35423;37.320;-121.762;2023-09-19T01:16:27;99778.22;;;39.58;11.33
49529;BME280;35423;37.320;-121.762;2023-09-19T01:18:52;99783.97;;;38.35;11.48
49529;BME280;35423;37.320;-121.762;2023-09-19T01:21:27;99787.05;;;39.21;11.48
49529;BME280;35423;37.320;-121.762;2023-09-19T01:24:00;99785.19;;;37.72;11.70
49529;BME280;35423;37.320;-121.762;2023-09-19T01:28:52;99793.26;;;37.47;11.99
49529;BME280;35423;37.320;-121.762;2023-09-19T01:31:07;99794.50;;;38.60;12.03
49529;BME280;35423;37.320;-121.762;2023-09-19T01:35:57;99799.08;;;37.92;12.27
49529;BME280;35423;37.320;-121.762;2023-09-19T01:38:26;99799.66;;;37.95;12.37
49529;BME280;35423;37.320;-121.762;2023-09-19T01:40:57;99797.82;;;37.60;12.55
49529;BME280;35423;37.320;-121.762;2023-09-19T01:43:23;99801.08;;;37.69;12.59
49529;BME280;35423;37.320;-121.762;2023-09-19T01:45:49;99800.54;;;37.69;12.57
49529;BME280;35423;37.320;-121.762;2023-09-19T01:48:21;99802.50;;;37.78;12.68
49529;BME280;35423;37.320;-121.762;2023-09-19T01:50:42;99805.92;;;37.39;12.71
49529;BME280;35423;37.320;-121.762;2023-09-19T01:53:09;99803.12;;;37.36;12.79
49529;BME280;35423;37.320;-121.762;2023-09-19T01:55:50;99803.92;;;36.96;12.82
49529;BME280;35423;37.320;-121.762;2023-09-19T01:58:21;99805.22;;;37.15;12.99
49529;BME280;35423;37.320;-121.762;2023-09-19T02:00:51;99808.57;;;37.03;13.10
49529;BME280;35423;37.320;-121.762;2023-09-19T02:03:17;99811.50;;;37.16;13.31
49529;BME280;35423;37.320;-121.762;2023-09-19T02:08:09;99813.19;;;36.23;13.56
49529;BME280;35423;37.320;-121.762;2023-09-19T02:10:40;99814.10;;;35.85;13.65
49529;BME280;35423;37.320;-121.762;2023-09-19T02:13:05;99819.47;;;36.13;13.78
49529;BME280;35423;37.320;-121.762;2023-09-19T02:15:37;99822.16;;;35.67;13.95
49529;BME280;35423;37.320;-121.762;2023-09-19T02:18:00;99823.95;;;35.96;14.15
49529;BME280;35423;37.320;-121.762;2023-09-19T02:20:31;99827.33;;;35.91;14.25
49529;BME280;35423;37.320;-121.762;2023-09-19T02:23:01;99832.68;;;35.77;14.37
49529;BME280;35423;37.320;-121.762;2023-09-19T02:25:30;99836.86;;;35.66;14.55
49529;BME280;35423;37.320;-121.762;2023-09-19T02:28:01;99841.04;;;35.50;14.75
49529;BME280;35423;37.320;-121.762;2023-09-19T02:30:31;99840.81;;;35.19;14.88
49529;BME280;35423;37.320;-121.762;2023-09-19T02:32:57;99847.16;;;35.19;15.04
49529;BME280;35423;37.320;-121.762;2023-09-19T02:35:26;99845.23;;;34.96;15.16
49529;BME280;35423;37.320;-121.762;2023-09-19T02:37:51;99847.95;;;35.03;15.26
49529;BME280;35423;37.320;-121.762;2023-09-19T02:40:28;99852.28;;;34.39;15.41
49529;BME280;35423;37.320;-121.762;2023-09-19T02:42:53;99854.11;;;34.68;15.51
49529;BME280;35423;37.320;-121.762;2023-09-19T02:45:23;99855.53;;;34.11;15.61
49529;BME280;35423;37.320;-121.762;2023-09-19T02:47:48;99863.12;;;34.14;15.47
49529;BME280;35423;37.320;-121.762;2023-09-19T02:50:21;99867.91;;;34.55;15.47
49529;BME280;35423;37.320;-121.762;2023-09-19T02:52:53;99868.23;;;33.98;15.62
49529;BME280;35423;37.320;-121.762;2023-09-19T02:55:19;99869.88;;;34.53;15.54
49529;BME280;35423;37.320;-121.762;2023-09-19T02:57:49;99868.42;;;34.06;15.63
49529;BME280;35423;37.320;-121.762;2023-09-19T03:00:17;99869.43;;;34.14;15.65
49529;BME280;35423;37.320;-121.762;2023-09-19T03:02:39;99870.82;;;33.48;15.77
49529;BME280;35423;37.320;-121.762;2023-09-19T03:05:13;99876.39;;;34.05;15.84
49529;BME280;35423;37.320;-121.762;2023-09-19T03:07:38;99876.85;;;33.40;15.93
49529;BME280;35423;37.320;-121.762;2023-09-19T03:10:07;99880.50;;;33.57;15.88
49529;BME280;35423;37.320;-121.762;2023-09-19T03:12:33;99886.61;;;33.64;15.89
49529;BME280;35423;37.320;-121.762;2023-09-19T03:15:00;99891.01;;;33.50;15.97
49529;BME280;35423;37.320;-121.762;2023-09-19T03:17:25;99892.93;;;33.63;15.98
49529;BME280;35423;37.320;-121.762;2023-09-19T03:19:53;99894.52;;;33.37;16.00
49529;BME280;35423;37.320;-121.762;2023-09-19T03:22:19;99900.07;;;33.42;16.04
49529;BME280;35423;37.320;-121.762;2023-09-19T03:24:47;99903.06;;;32.79;16.06
49529;BME280;35423;37.320;-121.762;2023-09-19T03:27:16;99906.41;;;33.16;16.08
49529;BME280;35423;37.320;-121.762;2023-09-19T03:29:47;99909.61;;;32.90;16.09
49529;BME280;35423;37.320;-121.762;2023-09-19T03:32:16;99912.97;;;33.02;16.12
49529;BME280;35423;37.320;-121.762;2023-09-19T03:34:43;99916.16;;;32.46;16.10
49529;BME280;35423;37.320;-121.762;2023-09-19T03:37:09;99918.91;;;32.88;16.06
49529;BME280;35423;37.320;-121.762;2023-09-19T03:39:36;99922.36;;;32.83;16.05
49529;BME280;35423;37.320;-121.762;2023-09-19T03:42:04;99924.61;;;32.77;15.98
49529;BME280;35423;37.320;-121.762;2023-09-19T03:44:42;99925.95;;;32.55;16.07
49529;BME280;35423;37.320;-121.762;2023-09-19T03:47:09;99925.58;;;32.74;16.09
49529;BME280;35423;37.320;-121.762;2023-09-19T03:49:36;99928.05;;;32.31;16.16
49529;BME280;35423;37.320;-121.762;2023-09-19T03:52:07;99930.31;;;32.67;16.04
49529;BME280;35423;37.320;-121.762;2023-09-19T03:57:06;99931.91;;;32.57;16.26
49529;BME280;35423;37.320;-121.762;2023-09-19T03:59:35;99934.13;;;32.40;16.41
49529;BME280;35423;37.320;-121.762;2023-09-19T04:02:04;99935.28;;;32.16;16.65
49529;BME280;35423;37.320;-121.762;2023-09-19T04:04:32;99937.90;;;32.13;16.72
49529;BME280;35423;37.320;-121.762;2023-09-19T04:06:55;99937.67;;;32.01;16.84
49529;BME280;35423;37.320;-121.762;2023-09-19T04:09:24;99938.77;;;31.90;16.99
49529;BME280;35423;37.320;-121.762;2023-09-19T04:11:50;99939.74;;;31.85;17.07
49529;BME280;35423;37.320;-121.762;2023-09-19T04:14:22;99938.11;;;31.68;17.21
49529;BME280;35423;37.320;-121.762;2023-09-19T04:16:44;99934.75;;;31.74;17.31
49529;BME280;35423;37.320;-121.762;2023-09-19T04:19:16;99934.50;;;31.33;17.45
49529;BME280;35423;37.320;-121.762;2023-09-19T04:21:45;99937.32;;;31.36;17.48
49529;BME280;35423;37.320;-121.762;2023-09-19T04:24:13;99937.86;;;31.54;17.53
49529;BME280;35423;37.320;-121.762;2023-09-19T04:26:42;99941.50;;;31.43;17.54
49529;BME280;35423;37.320;-121.762;2023-09-19T04:29:20;99942.04;;;31.27;17.65
49529;BME280;35423;37.320;-121.762;2023-09-19T04:31:40;99944.10;;;31.07;17.59
49529;BME280;35423;37.320;-121.762;2023-09-19T04:34:09;99943.94;;;31.39;17.70
49529;BME280;35423;37.320;-121.762;2023-09-19T04:36:37;99944.84;;;30.61;17.77
49529;BME280;35423;37.320;-121.762;2023-09-19T04:39:13;99946.17;;;30.97;17.84
49529;BME280;35423;37.320;-121.762;2023-09-19T04:41:43;99945.07;;;30.92;17.89
49529;BME280;35423;37.320;-121.762;2023-09-19T04:44:11;99948.96;;;30.60;18.02
49529;BME280;35423;37.320;-121.762;2023-09-19T04:46:39;99950.32;;;30.90;17.97
49529;BME280;35423;37.320;-121.762;2023-09-19T04:49:05;99947.38;;;30.74;18.17
49529;BME280;35423;37.320;-121.762;2023-09-19T04:51:38;99943.76;;;30.52;18.24
49529;BME280;35423;37.320;-121.762;2023-09-19T04:54:06;99936.98;;;29.91;18.40
49529;BME280;35423;37.320;-121.762;2023-09-19T04:56:33;99936.80;;;30.69;18.40
49529;BME280;35423;37.320;-121.762;2023-09-19T04:58:59;99935.76;;;30.54;18.59
49529;BME280;35423;37.320;-121.762;2023-09-19T05:01:28;99939.75;;;30.46;18.68
49529;BME280;35423;37.320;-121.762;2023-09-19T05:03:57;99940.00;;;30.12;18.69
49529;BME280;35423;37.320;-121.762;2023-09-19T05:06:23;99940.46;;;30.24;18.80
49529;BME280;35423;37.320;-121.762;2023-09-19T05:08:48;99940.12;;;29.66;18.89
49529;BME280;35423;37.320;-121.762;2023-09-19T05:11:17;99938.87;;;30.10;18.94
49529;BME280;35423;37.320;-121.762;2023-09-19T05:13:49;99938.31;;;29.27;19.02
49529;BME280;35423;37.320;-121.762;2023-09-19T05:16:08;99937.94;;;30.27;19.03
49529;BME280;35423;37.320;-121.762;2023-09-19T05:18:34;99937.50;;;29.60;19.12
49529;BME280;35423;37.320;-121.762;2023-09-19T05:21:01;99939.20;;;30.01;19.17
49529;BME280;35423;37.320;-121.762;2023-09-19T05:23:29;99940.76;;;29.59;19.29
49529;BME280;35423;37.320;-121.762;2023-09-19T05:25:55;99945.55;;;29.51;19.03
49529;BME280;35423;37.320;-121.762;2023-09-19T05:28:26;99944.55;;;30.46;19.02
49529;BME280;35423;37.320;-121.762;2023-09-19T05:30:50;99945.59;;;30.43;19.22
49529;BME280;35423;37.320;-121.762;2023-09-19T05:33:19;99944.94;;;30.15;19.40
49529;BME280;35423;37.320;-121.762;2023-09-19T05:35:45;99943.50;;;29.64;19.57
49529;BME280;35423;37.320;-121.762;2023-09-19T05:38:18;99942.47;;;30.14;19.69
49529;BME280;35423;37.320;-121.762;2023-09-19T05:40:54;99942.60;;;30.18;19.67
49529;BME280;35423;37.320;-121.762;2023-09-19T05:43:20;99942.56;;;30.04;19.75
49529;BME280;35423;37.320;-121.762;2023-09-19T05:45:45;99942.73;;;29.40;19.75
49529;BME280;35423;37.320;-121.762;2023-09-19T05:48:17;99943.64;;;29.95;19.92
49529;BME280;35423;37.320;-121.762;2023-09-19T05:50:52;99942.22;;;29.64;20.05
49529;BME280;35423;37.320;-121.762;2023-09-19T05:53:21;99944.97;;;29.54;20.12
49529;BME280;35423;37.320;-121.762;2023-09-19T05:56:03;99942.91;;;29.53;20.17
49529;BME280;35423;37.320;-121.762;2023-09-19T05:58:31;99940.11;;;29.34;20.33
49529;BME280;35423;37.320;-121.762;2023-09-19T06:01:01;99941.80;;;29.26;20.39
49529;BME280;35423;37.320;-121.762;2023-09-19T06:03:29;99944.49;;;29.11;20.51
49529;BME280;35423;37.320;-121.762;2023-09-19T06:05:57;99944.22;;;29.13;20.54
49529;BME280;35423;37.320;-121.762;2023-09-19T06:08:25;99942.97;;;29.47;20.60
49529;BME280;35423;37.320;-121.762;2023-09-19T06:10:53;99945.57;;;29.00;20.54
49529;BME280;35423;37.320;-121.762;2023-09-19T06:13:19;99945.06;;;28.84;20.55
49529;BME280;35423;37.320;-121.762;2023-09-19T06:15:48;99946.30;;;28.40;20.58
49529;BME280;35423;37.320;-121.762;2023-09-19T06:18:16;99945.36;;;29.06;20.60
49529;BME280;35423;37.320;-121.762;2023-09-19T06:20:44;99947.07;;;28.32;20.67
49529;BME280;35423;37.320;-121.762;2023-09-19T06:23:12;99948.22;;;29.18;20.69
49529;BME280;35423;37.320;-121.762;2023-09-19T06:25:38;99949.68;;;28.60;20.76
49529;BME280;35423;37.320;-121.762;2023-09-19T06:28:03;99949.45;;;28.49;20.85
49529;BME280;35423;37.320;-121.762;2023-09-19T06:30:35;99946.34;;;29.08;20.76
49529;BME280;35423;37.320;-121.762;2023-09-19T06:33:02;99945.39;;;28.95;20.81
49529;BME280;35423;37.320;-121.762;2023-09-19T06:35:28;99942.87;;;28.79;20.91
49529;BME280;35423;37.320;-121.762;2023-09-19T06:37:53;99944.17;;;28.45;20.92
49529;BME280;35423;37.320;-121.762;2023-09-19T06:40:21;99946.90;;;28.66;20.90
49529;BME280;35423;37.320;-121.762;2023-09-19T06:42:55;99946.72;;;28.75;20.92
49529;BME280;35423;37.320;-121.762;2023-09-19T06:45:20;99946.09;;;28.24;20.91
49529;BME280;35423;37.320;-121.762;2023-09-19T06:47:49;99947.19;;;28.37;20.92
49529;BME280;35423;37.320;-121.762;2023-09-19T06:50:15;99945.60;;;28.30;20.90
49529;BME280;35423;37.320;-121.762;2023-09-19T06:52:44;99943.47;;;28.17;20.93
49529;BME280;35423;37.320;-121.762;2023-09-19T06:55:07;99941.39;;;28.16;20.91
49529;BME280;35423;37.320;-121.762;2023-09-19T06:57:41;99946.30;;;27.90;20.88
49529;BME280;35423;37.320;-121.762;2023-09-19T07:00:23;99945.45;;;28.11;20.85
49529;BME280;35423;37.320;-121.762;2023-09-19T07:02:44;99940.95;;;27.95;20.83
49529;BME280;35423;37.320;-121.762;2023-09-19T07:05:13;99938.57;;;28.18;20.75
49529;BME280;35423;37.320;-121.762;2023-09-19T07:07:38;99940.16;;;27.66;20.75
49529;BME280;35423;37.320;-121.762;2023-09-19T07:10:20;99939.08;;;27.99;20.92
49529;BME280;35423;37.320;-121.762;2023-09-19T07:12:45;99943.49;;;27.82;21.11
49529;BME280;35423;37.320;-121.762;2023-09-19T07:15:19;99945.97;;;28.15;21.28
49529;BME280;35423;37.320;-121.762;2023-09-19T07:17:46;99944.54;;;28.01;21.41
49529;BME280;35423;37.320;-121.762;2023-09-19T07:20:19;99942.73;;;28.05;21.44
49529;BME280;35423;37.320;-121.762;2023-09-19T07:22:46;99948.73;;;27.93;21.54
49529;BME280;35423;37.320;-121.762;2023-09-19T07:25:15;99951.01;;;27.85;21.64
49529;BME280;35423;37.320;-121.762;2023-09-19T07:27:46;99950.81;;;27.48;21.74
49529;BME280;35423;37.320;-121.762;2023-09-19T07:30:18;99950.20;;;27.70;21.82
49529;BME280;35423;37.320;-121.762;2023-09-19T07:32:47;99948.50;;;27.63;21.94
49529;BME280;35423;37.320;-121.762;2023-09-19T07:35:22;99951.03;;;27.60;21.96
49529;BME280;35423;37.320;-121.762;2023-09-19T07:37:48;99951.32;;;27.52;22.02
49529;BME280;35423;37.320;-121.762;2023-09-19T07:40:17;99947.15;;;27.05;22.01
49529;BME280;35423;37.320;-121.762;2023-09-19T07:42:42;99947.91;;;27.47;22.05
49529;BME280;35423;37.320;-121.762;2023-09-19T07:45:09;99948.52;;;27.47;22.06
49529;BME280;35423;37.320;-121.762;2023-09-19T07:47:43;99947.87;;;27.38;22.13
49529;BME280;35423;37.320;-121.762;2023-09-19T07:50:01;99946.41;;;27.82;22.18
49529;BME280;35423;37.320;-121.762;2023-09-19T07:52:29;99945.55;;;27.00;22.20
49529;BME280;35423;37.320;-121.762;2023-09-19T07:54:56;99942.51;;;27.41;22.25
49529;BME280;35423;37.320;-121.762;2023-09-19T07:57:23;99940.51;;;27.32;22.34
49529;BME280;35423;37.320;-121.762;2023-09-19T07:59:48;99940.82;;;27.16;22.28
49529;BME280;35423;37.320;-121.762;2023-09-19T08:02:17;99940.17;;;27.36;22.29
49529;BME280;35423;37.320;-121.762;2023-09-19T08:04:43;99936.78;;;27.26;22.27
49529;BME280;35423;37.320;-121.762;2023-09-19T08:07:14;99935.02;;;27.28;22.19
49529;BME280;35423;37.320;-121.762;2023-09-19T08:09:42;99931.57;;;27.06;22.08
49529;BME280;35423;37.320;-121.762;2023-09-19T08:12:08;99934.05;;;27.23;22.05
49529;BME280;35423;37.320;-121.762;2023-09-19T08:14:36;99935.18;;;26.46;22.06
49529;BME280;35423;37.320;-121.762;2023-09-19T08:17:04;99936.57;;;26.92;22.08
49529;BME280;35423;37.320;-121.762;2023-09-19T08:19:34;99937.09;;;26.80;22.15
49529;BME280;35423;37.320;-121.762;2023-09-19T08:21:59;99940.39;;;26.98;22.15
49529;BME280;35423;37.320;-121.762;2023-09-19T08:24:27;99939.95;;;26.87;22.24
49529;BME280;35423;37.320;-121.762;2023-09-19T08:27:00;99941.41;;;26.75;22.33
49529;BME280;35423;37.320;-121.762;2023-09-19T08:29:26;99940.98;;;26.63;22.37
49529;BME280;35423;37.320;-121.762;2023-09-19T08:31:57;99941.03;;;26.50;22.41
49529;BME280;35423;37.320;-121.762;2023-09-19T08:34:23;99942.13;;;26.42;22.46
49529;BME280;35423;37.320;-121.762;2023-09-19T08:36:55;99943.24;;;26.65;22.45
49529;BME280;35423;37.320;-121.762;2023-09-19T08:39:20;99945.62;;;26.07;22.52
49529;BME280;35423;37.320;-121.762;2023-09-19T08:41:43;99944.53;;;26.09;22.56
49529;BME280;35423;37.320;-121.762;2023-09-19T08:44:14;99941.73;;;26.27;22.64
49529;BME280;35423;37.320;-121.762;2023-09-19T08:46:42;99943.28;;;26.27;22.69
49529;BME280;35423;37.320;-121.762;2023-09-19T08:49:08;99945.35;;;26.00;22.80
49529;BME280;35423;37.320;-121.762;2023-09-19T08:51:42;99946.86;;;26.94;22.80
49529;BME280;35423;37.320;-121.762;2023-09-19T08:54:06;99944.51;;;26.34;22.97
49529;BME280;35423;37.320;-121.762;2023-09-19T08:56:33;99945.85;;;26.47;23.05
49529;BME280;35423;37.320;-121.762;2023-09-19T08:59:02;99944.76;;;26.09;23.15
49529;BME280;35423;37.320;-121.762;2023-09-19T09:01:30;99943.88;;;26.05;23.17
49529;BME280;35423;37.320;-121.762;2023-09-19T09:03:56;99943.53;;;25.66;23.34
49529;BME280;35423;37.320;-121.762;2023-09-19T09:06:25;99942.45;;;25.65;23.36
49529;BME280;35423;37.320;-121.762;2023-09-19T09:08:47;99939.17;;;25.81;23.52
49529;BME280;35423;37.320;-121.762;2023-09-19T09:11:15;99935.12;;;25.47;23.54
49529;BME280;35423;37.320;-121.762;2023-09-19T09:13:47;99929.32;;;24.65;23.65
49529;BME280;35423;37.320;-121.762;2023-09-19T09:16:15;99928.92;;;25.78;23.79
49529;BME280;35423;37.320;-121.762;2023-09-19T09:18:42;99932.55;;;24.95;23.81
49529;BME280;35423;37.320;-121.762;2023-09-19T09:21:07;99934.26;;;25.75;23.70
49529;BME280;35423;37.320;-121.762;2023-09-19T09:23:36;99938.24;;;24.86;23.88
49529;BME280;35423;37.320;-121.762;2023-09-19T09:26:09;99936.11;;;25.36;23.88
49529;BME280;35423;37.320;-121.762;2023-09-19T09:31:06;99928.18;;;25.75;23.92
49529;BME280;35423;37.320;-121.762;2023-09-19T09:33:39;99927.94;;;24.89;24.02
49529;BME280;35423;37.320;-121.762;2023-09-19T09:36:07;99924.46;;;25.52;24.03
49529;BME280;35423;37.320;-121.762;2023-09-19T09:41:04;99920.68;;;25.36;24.13
49529;BME280;35423;37.320;-121.762;2023-09-19T09:43:32;99920.66;;;24.81;24.16
49529;BME280;35423;37.320;-121.762;2023-09-19T09:48:29;99916.21;;;25.19;24.14
49529;BME280;35423;37.320;-121.762;2023-09-19T09:50:58;99909.36;;;25.31;24.00
49529;BME280;35423;37.320;-121.762;2023-09-19T09:53:28;99907.23;;;25.06;23.99
49529;BME280;35423;37.320;-121.762;2023-09-19T09:56:00;99903.67;;;25.29;24.03
49529;BME280;35423;37.320;-121.762;2023-09-19T09:58:21;99900.29;;;24.74;24.14
49529;BME280;35423;37.320;-121.762;2023-09-19T10:00:53;99899.70;;;25.24;24.10
49529;BME280;35423;37.320;-121.762;2023-09-19T10:03:24;99899.98;;;25.37;24.20
49529;BME280;35423;37.320;-121.762;2023-09-19T10:05:52;99901.42;;;24.82;24.29
49529;BME280;35423;37.320;-121.762;2023-09-19T10:08:19;99902.47;;;25.17;24.40
49529;BME280;35423;37.320;-121.762;2023-09-19T10:10:45;99905.75;;;25.03;24.36
49529;BME280;35423;37.320;-121.762;2023-09-19T10:13:14;99901.46;;;25.14;24.52
49529;BME280;35423;37.320;-121.762;2023-09-19T10:15:47;99900.85;;;24.63;24.53
49529;BME280;35423;37.320;-121.762;2023-09-19T10:18:18;99897.73;;;24.80;24.54
49529;BME280;35423;37.320;-121.762;2023-09-19T10:20:38;99894.95;;;24.26;24.59
49529;BME280;35423;37.320;-121.762;2023-09-19T10:23:05;99891.09;;;24.73;24.56
49529;BME280;35423;37.320;-121.762;2023-09-19T10:25:36;99893.98;;;24.65;24.64
49529;BME280;35423;37.320;-121.762;2023-09-19T10:28:05;99892.26;;;24.59;24.71
49529;BME280;35423;37.320;-121.762;2023-09-19T10:30:41;99891.34;;;24.71;24.84
49529;BME280;35423;37.320;-121.762;2023-09-19T10:33:07;99895.51;;;24.33;24.92
49529;BME280;35423;37.320;-121.762;2023-09-19T10:35:43;99895.40;;;23.91;24.91
49529;BME280;35423;37.320;-121.762;2023-09-19T10:38:07;99896.51;;;24.33;24.97
49529;BME280;35423;37.320;-121.762;2023-09-19T10:40:34;99899.79;;;24.80;25.04
49529;BME280;35423;37.320;-121.762;2023-09-19T10:43:02;99900.22;;;24.51;25.09
49529;BME280;35423;37.320;-121.762;2023-09-19T10:45:37;99895.62;;;24.29;25.01
49529;BME280;35423;37.320;-121.762;2023-09-19T10:48:01;99899.08;;;24.48;25.01
49529;BME280;35423;37.320;-121.762;2023-09-19T10:50:33;99899.86;;;24.41;24.98
49529;BME280;35423;37.320;-121.762;2023-09-19T10:52:58;99900.13;;;24.09;24.96
49529;BME280;35423;37.320;-121.762;2023-09-19T10:55:24;99899.87;;;24.33;24.94
49529;BME280;35423;37.320;-121.762;2023-09-19T10:57:52;99895.43;;;24.31;24.97
49529;BME280;35423;37.320;-121.762;2023-09-19T11:00:28;99896.80;;;24.50;25.01
49529;BME280;35423;37.320;-121.762;2023-09-19T11:03:17;99898.02;;;24.42;25.14
49529;BME280;35423;37.320;-121.762;2023-09-19T11:05:38;99894.69;;;23.94;25.17
49529;BME280;35423;37.320;-121.762;2023-09-19T11:08:04;99896.31;;;24.40;25.24
49529;BME280;35423;37.320;-121.762;2023-09-19T11:12:59;99895.31;;;24.29;25.38
49529;BME280;35423;37.320;-121.762;2023-09-19T11:17:49;99895.66;;;24.08;25.61
49529;BME280;35423;37.320;-121.762;2023-09-19T11:20:25;99893.37;;;24.06;25.67
49529;BME280;35423;37.320;-121.762;2023-09-19T11:35:14;99883.61;;;23.71;25.92
49529;BME280;35423;37.320;-121.762;2023-09-19T11:40:13;99884.05;;;23.65;25.96
49529;BME280;35423;37.320;-121.762;2023-09-19T11:42:43;99883.01;;;23.62;25.96
49529;BME280;35423;37.320;-121.762;2023-09-19T11:47:45;99880.88;;;23.48;26.12
49529;BME280;35423;37.320;-121.762;2023-09-19T11:50:12;99882.50;;;23.70;26.22
49529;BME280;35423;37.320;-121.762;2023-09-19T11:52:41;99884.14;;;22.92;26.27
49529;BME280;35423;37.320;-121.762;2023-09-19T11:55:06;99884.28;;;23.44;26.29
49529;BME280;35423;37.320;-121.762;2023-09-19T11:57:36;99883.65;;;22.90;26.33
49529;BME280;35423;37.320;-121.762;2023-09-19T12:00:07;99884.97;;;23.69;26.31
49529;BME280;35423;37.320;-121.762;2023-09-19T12:02:39;99881.33;;;23.35;26.39
49529;BME280;35423;37.320;-121.762;2023-09-19T12:05:02;99881.46;;;23.32;26.44
49529;BME280;35423;37.320;-121.762;2023-09-19T12:07:32;99883.82;;;23.79;26.44
49529;BME280;35423;37.320;-121.762;2023-09-19T12:10:07;99883.12;;;23.30;26.46
49529;BME280;35423;37.320;-121.762;2023-09-19T12:12:29;99883.90;;;23.27;26.52
49529;BME280;35423;37.320;-121.762;2023-09-19T12:14:54;99880.00;;;23.27;26.56
49529;BME280;35423;37.320;-121.762;2023-09-19T12:17:21;99876.85;;;23.72;26.66
49529;BME280;35423;37.320;-121.762;2023-09-19T12:20:00;99875.45;;;23.45;26.74
49529;BME280;35423;37.320;-121.762;2023-09-19T12:22:28;99878.99;;;23.41;26.74
49529;BME280;35423;37.320;-121.762;2023-09-19T12:24:52;99879.58;;;23.43;26.74
49529;BME280;35423;37.320;-121.762;2023-09-19T12:27:20;99878.81;;;23.32;26.85
49529;BME280;35423;37.320;-121.762;2023-09-19T12:29:49;99878.40;;;23.03;26.94
49529;BME280;35423;37.320;-121.762;2023-09-19T12:32:13;99876.86;;;23.47;26.99
49529;BME280;35423;37.320;-121.762;2023-09-19T12:34:38;99879.21;;;22.98;27.00
49529;BME280;35423;37.320;-121.762;2023-09-19T12:37:10;99877.83;;;23.19;27.09
49529;BME280;35423;37.320;-121.762;2023-09-19T12:39:33;99876.94;;;23.43;27.11
49529;BME280;35423;37.320;-121.762;2023-09-19T12:41:59;99871.63;;;23.43;27.12
49529;BME280;35423;37.320;-121.762;2023-09-19T12:44:24;99874.00;;;23.42;27.20
49529;BME280;35423;37.320;-121.762;2023-09-19T12:46:50;99872.16;;;23.17;27.26
49529;BME280;35423;37.320;-121.762;2023-09-19T12:49:33;99875.01;;;23.32;27.36
49529;BME280;35423;37.320;-121.762;2023-09-19T12:52:06;99875.06;;;23.26;27.51
49529;BME280;35423;37.320;-121.762;2023-09-19T12:54:45;99872.10;;;23.02;27.57
49529;BME280;35423;37.320;-121.762;2023-09-19T12:59:36;99863.32;;;22.93;27.72
49529;BME280;35423;37.320;-121.762;2023-09-19T13:02:09;99861.50;;;22.88;27.86
49529;BME280;35423;37.320;-121.762;2023-09-19T13:04:35;99861.68;;;22.85;27.95
49529;BME280;35423;37.320;-121.762;2023-09-19T13:07:07;99863.97;;;23.21;28.07
49529;BME280;35423;37.320;-121.762;2023-09-19T13:09:33;99867.03;;;22.72;28.12
49529;BME280;35423;37.320;-121.762;2023-09-19T13:11:58;99868.37;;;22.93;28.18
49529;BME280;35423;37.320;-121.762;2023-09-19T13:14:30;99874.03;;;22.88;28.22
49529;BME280;35423;37.320;-121.762;2023-09-19T13:16:59;99879.47;;;22.65;28.22